Ketrzyn, Poland

8:03 AM CEST on August 01, 2014 (GMT +0200)
Khrabrovo (UMKK) Elev 39 ft | 54.89 °N, 20.59 °E | Change Station

Current weather conditions updated 33 minutes ago

Mostly Cloudy
Mostly Cloudy
68 °F
Feels Like 68 °F
N
7
Wind Variable Wind from West

Today is forecast to be nearly the same temperature as yesterday. Occasional showers possible.

Today
High -- | Low -- °F
--% Chance of Precip.
Yesterday
High -- | Low -- °F
Precip. -- in
4:47 AM 8:33 PM
Waxing Crescent, 24% visible
Pressure 29.98 in
Visibility 6.2 miles
Clouds Few 4000 ft
Mostly Cloudy 20000 ft
Dew Point 61 °F
Humidity 78%
Rainfall 0.00 in
Snow Depth Not available.
UV 1 out of 12
Pollen Not available.
Air Quality Not available.
Flu Activity Not available.
METAR UMKK 010530Z 27003MPS 240V300 9999 FEW040 BKN200 20/16 Q1015 NOSIG RMK QFE760/1014

More Conditions Fewer Conditions

Pressure 29.98 in
Visibility 6.2 miles
Clouds Few 4000 ft
Mostly Cloudy 20000 ft
Dew Point 61 °F
Humidity 78%
Rainfall 0.00 in
Snow Depth Not available.
UV 1 out of 12
Pollen Not available.
Air Quality Not available.
Flu Activity Not available.
METAR UMKK 010530Z 27003MPS 240V300 9999 FEW040 BKN200 20/16 Q1015 NOSIG RMK QFE760/1014

More Conditions Fewer Conditions

10-Day Weather Forecast

Almanac

Astronomy

Aug. 01, 2014 Rise Set
Actual Time 4:47 AM CEST 8:33 PM CEST
Civil Twilight 4:02 AM CEST 9:17 PM CEST
Nautical Twilight 2:59 AM CEST 10:20 PM CEST
Astronomical Twilight 1:13 AM CEST 12:24 AM CEST
Moon 10:48 AM CEST 10:09 PM CEST
Length of Visible Light 17h 15m
Length of Day
15h 46m
Tomorrow will be 3m 33s shorter.
Waxing Crescent, 24% of the Moon is Illuminated
Today
Waxing Crescent
Aug 3
First Quarter
Aug 10
Full
Aug 17
Last Quarter
Aug 25
New

Yesterday's Extremes

Country Highs Country Lows

Community

WunderPhotos

Upload Photos

1,739,522 photos uploaded!

Nearby

Snow Depth

Not available.

Earthquake Activity

City Distance Mag. Time & Date
No recent earthquake activity has been reported nearby.
Minimum magnitude displayed is 2.5.

Coastal Water Temperatures

Place Temperature
No Stations Reporting

Nearby Weather Stations

There are no personal weather stations in this area.